createdAt,value
2019-04-03T00:00:58.518Z,14.45
2019-04-03T00:02:02.649Z,14.42
2019-04-03T00:03:07.062Z,14.38
2019-04-03T00:04:10.503Z,14.33
2019-04-03T00:05:14.002Z,14.32
2019-04-03T00:06:17.431Z,14.34
2019-04-03T00:07:20.865Z,14.36
2019-04-03T00:08:25.149Z,14.38
2019-04-03T00:09:28.578Z,14.36
2019-04-03T00:10:32.069Z,14.36
2019-04-03T00:11:35.870Z,14.36
2019-04-03T00:12:40.989Z,14.38
2019-04-03T00:13:44.698Z,14.36
2019-04-03T00:14:48.125Z,14.37
2019-04-03T00:15:51.619Z,14.41
2019-04-03T00:16:55.132Z,14.38
2019-04-03T00:17:58.552Z,14.33
2019-04-03T00:19:02.067Z,14.34
2019-04-03T00:20:09.977Z,14.38
2019-04-03T00:21:13.398Z,14.40
2019-04-03T00:22:16.822Z,14.40
2019-04-03T00:23:20.628Z,14.41
2019-04-03T00:24:25.423Z,14.39
2019-04-03T00:25:28.940Z,14.43
2019-04-03T00:26:32.359Z,14.45
2019-04-03T00:27:35.855Z,14.43
2019-04-03T00:28:39.376Z,14.43
2019-04-03T00:29:42.806Z,14.40
2019-04-03T00:30:46.419Z,14.38
2019-04-03T00:31:49.842Z,14.39
2019-04-03T00:32:54.017Z,14.40
2019-04-03T00:33:57.641Z,14.39
2019-04-03T00:35:01.066Z,14.39
2019-04-03T00:36:04.572Z,14.39
2019-04-03T00:37:07.996Z,14.37
2019-04-03T00:38:11.418Z,14.38
2019-04-03T00:39:14.868Z,14.33
2019-04-03T00:40:18.291Z,14.32
2019-04-03T00:41:22.712Z,14.37
2019-04-03T00:42:26.883Z,14.40
2019-04-03T00:43:30.304Z,14.37
2019-04-03T00:44:33.757Z,14.31
2019-04-03T00:45:37.189Z,14.26
2019-04-03T00:46:40.618Z,14.16
2019-04-03T00:47:44.082Z,14.18
2019-04-03T00:48:47.537Z,14.11
2019-04-03T00:49:50.959Z,14.05
2019-04-03T00:50:56.369Z,14.08
2019-04-03T00:51:59.552Z,14.13
2019-04-03T00:53:03.085Z,14.16
2019-04-03T00:54:06.527Z,14.17
2019-04-03T00:55:10.111Z,14.18
2019-04-03T00:56:13.578Z,14.11
2019-04-03T00:57:17.013Z,13.96
2019-04-03T00:58:38.553Z,13.92
2019-04-03T00:59:42.007Z,13.99
2019-04-03T01:00:45.446Z,14.08
2019-04-03T01:01:48.945Z,14.09
2019-04-03T01:02:52.441Z,14.01
2019-04-03T01:03:56.847Z,14.00
2019-04-03T01:05:01.059Z,13.99
2019-04-03T01:06:04.815Z,13.98
2019-04-03T01:07:08.242Z,13.93
2019-04-03T01:08:11.725Z,13.87
2019-04-03T01:09:15.114Z,13.87
2019-04-03T01:10:18.635Z,13.88
2019-04-03T01:11:22.082Z,13.91
2019-04-03T01:12:25.519Z,13.90
2019-04-03T01:13:30.988Z,13.95
2019-04-03T01:14:34.094Z,13.97
2019-04-03T01:15:37.661Z,14.03
2019-04-03T01:16:41.065Z,14.09
2019-04-03T01:17:44.495Z,14.13
2019-04-03T01:18:47.922Z,14.16
2019-04-03T01:19:51.349Z,14.20
2019-04-03T01:20:54.874Z,14.22
2019-04-03T01:21:58.300Z,14.21
2019-04-03T01:23:01.762Z,14.19
2019-04-03T01:24:07.486Z,14.18
2019-04-03T01:25:10.630Z,14.12
2019-04-03T01:26:14.153Z,14.07
2019-04-03T01:27:17.579Z,14.03
2019-04-03T01:28:21.010Z,14.03
2019-04-03T01:29:24.508Z,14.04
2019-04-03T01:30:27.939Z,13.99
2019-04-03T01:31:31.581Z,13.97
2019-04-03T01:32:34.991Z,13.99
2019-04-03T01:33:38.430Z,13.99
2019-04-03T01:34:41.865Z,13.94
2019-04-03T01:35:47.132Z,13.89
2019-04-03T01:36:50.545Z,13.83
2019-04-03T01:37:53.991Z,13.81
2019-04-03T01:38:57.430Z,13.79
2019-04-03T01:40:00.866Z,13.75
2019-04-03T01:41:04.368Z,13.78
2019-04-03T01:42:07.870Z,13.85
2019-04-03T01:43:11.310Z,13.86
2019-04-03T01:44:14.745Z,13.92
2019-04-03T01:45:18.178Z,13.97
2019-04-03T01:46:21.607Z,14.00
2019-04-03T01:47:27.514Z,13.95
2019-04-03T01:48:30.238Z,13.82
2019-04-03T01:49:33.648Z,13.75
2019-04-03T01:50:37.083Z,13.75
2019-04-03T01:51:40.514Z,13.79
2019-04-03T01:52:43.970Z,13.78
2019-04-03T01:53:47.407Z,13.74
2019-04-03T01:54:50.831Z,13.77
2019-04-03T01:55:54.341Z,13.72
2019-04-03T01:56:58.018Z,13.71
2019-04-03T01:58:01.477Z,13.57
2019-04-03T01:59:06.583Z,13.54
2019-04-03T02:00:10.367Z,13.46
2019-04-03T02:01:13.800Z,13.44
2019-04-03T02:02:17.239Z,13.52
2019-04-03T02:03:20.823Z,13.48
2019-04-03T02:04:24.373Z,13.44
2019-04-03T02:05:27.843Z,13.49
2019-04-03T02:06:31.277Z,13.50
2019-04-03T02:07:34.703Z,13.43
2019-04-03T02:08:38.228Z,13.41
2019-04-03T02:09:41.727Z,13.43
2019-04-03T02:10:45.199Z,13.42
2019-04-03T02:11:49.317Z,13.38
2019-04-03T02:12:53.206Z,13.39
2019-04-03T02:13:56.791Z,13.40
2019-04-03T02:15:00.187Z,13.35
2019-04-03T02:16:03.746Z,13.36
2019-04-03T02:17:07.195Z,13.32
2019-04-03T02:18:10.670Z,13.29
2019-04-03T02:19:14.259Z,13.28
2019-04-03T02:20:17.817Z,13.27
2019-04-03T02:21:21.247Z,13.32
2019-04-03T02:22:25.247Z,13.36
2019-04-03T02:23:30.341Z,13.40
2019-04-03T02:24:33.851Z,13.50
2019-04-03T02:25:37.348Z,13.59
2019-04-03T02:26:40.777Z,13.61
2019-04-03T02:27:44.283Z,13.69
2019-04-03T02:28:47.715Z,13.77
2019-04-03T02:29:51.168Z,13.86
2019-04-03T02:30:54.648Z,13.83
2019-04-03T02:31:58.176Z,13.84
2019-04-03T02:33:01.667Z,13.77
2019-04-03T02:34:05.193Z,13.77
2019-04-03T02:35:08.995Z,13.74
2019-04-03T02:36:13.111Z,13.76
2019-04-03T02:37:17.562Z,13.80
2019-04-03T02:38:22.627Z,13.85
2019-04-03T02:39:27.658Z,13.87
2019-04-03T02:40:32.512Z,13.82
2019-04-03T02:41:37.435Z,13.83
2019-04-03T02:42:42.417Z,13.78
2019-04-03T02:43:47.364Z,13.76
2019-04-03T02:44:51.906Z,13.77
2019-04-03T02:45:56.811Z,13.80
2019-04-03T02:47:01.482Z,13.82
2019-04-03T02:48:06.248Z,13.74
2019-04-03T02:49:11.076Z,13.75
2019-04-03T02:50:17.678Z,13.68
2019-04-03T02:51:21.137Z,13.76
2019-04-03T02:52:25.643Z,13.83
2019-04-03T02:53:31.166Z,13.84
2019-04-03T02:54:38.136Z,13.77
2019-04-03T02:55:41.601Z,13.75
2019-04-03T02:56:46.028Z,13.75
2019-04-03T02:57:50.366Z,13.73
2019-04-03T02:58:55.062Z,13.73
2019-04-03T03:00:00.334Z,13.75
2019-04-03T03:01:07.014Z,13.76
2019-04-03T03:02:11.681Z,13.73
2019-04-03T03:03:17.283Z,13.77
2019-04-03T03:04:21.958Z,13.81
2019-04-03T03:05:28.106Z,13.84
2019-04-03T03:06:33.004Z,13.85
2019-04-03T03:07:36.947Z,13.86
2019-04-03T03:08:42.665Z,13.86
2019-04-03T03:09:47.735Z,13.82
2019-04-03T03:10:52.933Z,13.75
2019-04-03T03:11:57.288Z,13.71
2019-04-03T03:13:02.393Z,13.69
2019-04-03T03:14:07.258Z,13.66
2019-04-03T03:15:12.676Z,13.69
2019-04-03T03:16:18.141Z,13.71
2019-04-03T03:17:23.508Z,13.75
2019-04-03T03:18:28.325Z,13.73
2019-04-03T03:19:33.793Z,13.72
2019-04-03T03:20:39.515Z,13.70
2019-04-03T03:21:44.711Z,13.69
2019-04-03T03:22:50.565Z,13.59
2019-04-03T03:23:56.252Z,13.45
2019-04-03T03:25:00.945Z,13.43
2019-04-03T03:26:05.775Z,13.36
2019-04-03T03:27:10.341Z,13.43
2019-04-03T03:28:15.312Z,13.46
2019-04-03T03:29:25.260Z,13.52
2019-04-03T03:30:41.890Z,13.49
2019-04-03T03:31:58.779Z,13.44
2019-04-03T03:32:37.719Z,13.49
2019-04-03T03:33:42.291Z,13.47
2019-04-03T03:34:55.932Z,13.47
2019-04-03T03:35:52.154Z,13.52
2019-04-03T03:37:00.678Z,13.51
2019-04-03T03:38:06.315Z,13.47
2019-04-03T03:39:10.435Z,13.51
2019-04-03T03:40:16.594Z,13.58
2019-04-03T03:41:22.058Z,13.58
2019-04-03T03:42:24.951Z,13.57
2019-04-03T03:43:28.834Z,13.54
2019-04-03T03:44:32.785Z,13.49
2019-04-03T03:45:37.161Z,13.44
2019-04-03T03:46:41.644Z,13.45
2019-04-03T03:47:45.753Z,13.49
2019-04-03T03:48:49.605Z,13.48
2019-04-03T03:49:54.236Z,13.41
2019-04-03T03:50:58.657Z,13.41
2019-04-03T03:52:03.995Z,13.35
2019-04-03T03:53:11.826Z,13.30
2019-04-03T03:54:16.696Z,13.33
2019-04-03T03:55:23.151Z,13.24
2019-04-03T03:56:24.603Z,13.16
2019-04-03T03:57:28.258Z,13.14
2019-04-03T03:58:32.382Z,13.04
2019-04-03T03:59:36.887Z,13.05
2019-04-03T04:00:40.814Z,13.08
2019-04-03T04:01:44.431Z,13.01
2019-04-03T04:02:47.985Z,13.01
2019-04-03T04:03:53.082Z,12.94
2019-04-03T04:04:57.011Z,12.94
2019-04-03T04:06:00.558Z,12.94
2019-04-03T04:07:04.775Z,12.95
2019-04-03T04:08:10.600Z,12.86
2019-04-03T04:09:17.174Z,12.80
2019-04-03T04:10:18.947Z,12.73
2019-04-03T04:11:22.553Z,12.70
2019-04-03T04:12:26.507Z,12.70
2019-04-03T04:13:30.282Z,12.67
2019-04-03T04:14:33.846Z,12.63
2019-04-03T04:15:37.941Z,12.53
2019-04-03T04:16:41.971Z,12.45
2019-04-03T04:17:49.001Z,12.43
2019-04-03T04:18:51.135Z,12.44
2019-04-03T04:19:54.675Z,12.43
2019-04-03T04:20:58.339Z,12.42
2019-04-03T04:22:01.957Z,12.39
2019-04-03T04:23:05.648Z,12.38
2019-04-03T04:24:09.092Z,12.41
2019-04-03T04:25:12.659Z,12.46
2019-04-03T04:26:16.238Z,12.44
2019-04-03T04:27:19.997Z,12.40
2019-04-03T04:28:23.353Z,12.35
2019-04-03T04:29:26.933Z,12.40
2019-04-03T04:30:30.808Z,12.43
2019-04-03T04:31:34.233Z,12.34
2019-04-03T04:32:37.860Z,12.35
2019-04-03T04:33:41.268Z,12.41
2019-04-03T04:34:44.823Z,12.42
2019-04-03T04:35:51.360Z,12.39
2019-04-03T04:36:55.328Z,12.39
2019-04-03T04:37:58.677Z,12.37
2019-04-03T04:39:02.131Z,12.35
2019-04-03T04:40:05.803Z,12.35
2019-04-03T04:41:09.226Z,12.38
2019-04-03T04:42:12.660Z,12.35
2019-04-03T04:43:16.175Z,12.41
2019-04-03T04:44:19.609Z,12.41
2019-04-03T04:45:23.282Z,12.34
2019-04-03T04:46:26.719Z,12.24
2019-04-03T04:47:30.221Z,12.26
2019-04-03T04:48:33.735Z,12.24
2019-04-03T04:49:37.212Z,12.16
2019-04-03T04:50:40.824Z,12.19
2019-04-03T04:51:44.202Z,12.19
2019-04-03T04:52:47.773Z,12.20
2019-04-03T04:53:51.196Z,12.20
2019-04-03T04:54:54.581Z,12.23
2019-04-03T04:55:58.007Z,12.19
2019-04-03T04:57:01.453Z,12.16
2019-04-03T04:58:05.325Z,12.21
2019-04-03T04:59:09.000Z,12.29
2019-04-03T05:00:13.771Z,12.35
2019-04-03T05:01:18.307Z,12.41
2019-04-03T05:02:21.753Z,12.34
2019-04-03T05:03:25.286Z,12.29
2019-04-03T05:04:28.924Z,12.29
2019-04-03T05:05:32.663Z,12.24
2019-04-03T05:06:36.449Z,12.26
2019-04-03T05:07:40.303Z,12.28
2019-04-03T05:08:43.690Z,12.25
2019-04-03T05:09:47.122Z,12.20
2019-04-03T05:10:50.621Z,12.08
2019-04-03T05:11:54.071Z,12.03
2019-04-03T05:12:57.510Z,12.00
2019-04-03T05:14:01.253Z,12.02
2019-04-03T05:15:06.093Z,12.02
2019-04-03T05:16:09.582Z,11.95
2019-04-03T05:17:13.103Z,11.90
2019-04-03T05:18:16.640Z,11.81
2019-04-03T05:19:20.109Z,11.87
2019-04-03T05:20:23.670Z,12.00
2019-04-03T05:21:27.146Z,12.07
2019-04-03T05:22:30.639Z,12.01
2019-04-03T05:23:34.301Z,11.98
2019-04-03T05:24:37.850Z,12.01
2019-04-03T05:25:41.550Z,11.98
2019-04-03T05:26:45.189Z,11.98
2019-04-03T05:27:48.616Z,12.00
2019-04-03T05:28:57.166Z,12.04
2019-04-03T05:29:57.297Z,12.14
2019-04-03T05:31:01.006Z,12.24
2019-04-03T05:32:04.541Z,12.21
2019-04-03T05:33:10.648Z,12.13
2019-04-03T05:34:13.748Z,12.18
2019-04-03T05:35:17.521Z,12.06
2019-04-03T05:36:20.972Z,11.99
2019-04-03T05:37:24.571Z,12.01
2019-04-03T05:38:27.987Z,11.99
2019-04-03T05:39:31.501Z,11.94
2019-04-03T05:40:34.921Z,11.91
2019-04-03T05:41:38.347Z,11.86
2019-04-03T05:42:41.775Z,11.83
2019-04-03T05:43:45.227Z,11.81
2019-04-03T05:44:48.663Z,11.84
2019-04-03T05:45:52.166Z,11.83
2019-04-03T05:46:55.607Z,11.85
2019-04-03T05:47:59.041Z,11.67
2019-04-03T05:49:02.493Z,11.50
2019-04-03T05:50:06.763Z,11.45
2019-04-03T05:51:10.137Z,11.57
2019-04-03T05:52:13.847Z,11.59
2019-04-03T05:53:17.501Z,11.56
2019-04-03T05:54:21.121Z,11.60
2019-04-03T05:55:24.547Z,11.62
2019-04-03T05:56:28.042Z,11.62
2019-04-03T05:57:31.483Z,11.65
2019-04-03T05:58:34.979Z,11.55
2019-04-03T05:59:38.427Z,11.51
2019-04-03T06:00:42.590Z,11.43
2019-04-03T06:01:47.134Z,11.36
2019-04-03T06:02:52.669Z,11.39
2019-04-03T06:03:55.866Z,11.54
2019-04-03T06:04:59.791Z,11.63
2019-04-03T06:06:03.343Z,11.67
2019-04-03T06:07:06.782Z,11.70
2019-04-03T06:08:10.226Z,11.69
2019-04-03T06:09:13.840Z,11.75
2019-04-03T06:10:17.348Z,11.78
2019-04-03T06:11:21.406Z,11.87
2019-04-03T06:12:24.999Z,11.87
2019-04-03T06:13:28.647Z,11.85
2019-04-03T06:14:32.229Z,11.85
2019-04-03T06:15:35.679Z,11.90
2019-04-03T06:16:39.131Z,11.93
2019-04-03T06:17:42.576Z,11.94
2019-04-03T06:18:47.473Z,11.93
2019-04-03T06:19:51.261Z,11.96
2019-04-03T06:20:54.948Z,11.99
2019-04-03T06:21:58.371Z,12.01
2019-04-03T06:23:02.118Z,11.96
2019-04-03T06:24:05.615Z,11.94
2019-04-03T06:25:13.455Z,11.99
2019-04-03T06:26:14.454Z,12.05
2019-04-03T06:27:19.670Z,12.13
2019-04-03T06:28:23.430Z,12.09
2019-04-03T06:29:27.020Z,12.06
2019-04-03T06:30:30.436Z,12.09
2019-04-03T06:31:33.869Z,12.15
2019-04-03T06:32:37.622Z,12.17
2019-04-03T06:33:41.132Z,12.22
2019-04-03T06:34:44.528Z,12.23
2019-04-03T06:35:47.960Z,12.26
2019-04-03T06:36:51.637Z,12.21
2019-04-03T06:37:55.082Z,12.23
2019-04-03T06:38:58.535Z,12.24
2019-04-03T06:40:02.874Z,12.28
2019-04-03T06:41:08.791Z,12.36
2019-04-03T06:42:13.310Z,12.50
2019-04-03T06:43:17.904Z,12.53
2019-04-03T06:44:22.649Z,12.53
2019-04-03T06:45:27.098Z,12.59
2019-04-03T06:46:30.632Z,12.64
2019-04-03T06:47:34.070Z,12.70
2019-04-03T06:48:37.533Z,12.75
2019-04-03T06:49:41.139Z,12.83
2019-04-03T06:50:44.780Z,12.87
2019-04-03T06:51:49.441Z,12.90
2019-04-03T06:52:53.742Z,12.95
2019-04-03T06:53:59.163Z,12.96
2019-04-03T06:55:03.333Z,12.97
2019-04-03T06:56:08.653Z,12.98
2019-04-03T06:57:13.863Z,12.98
2019-04-03T06:58:17.605Z,13.05
2019-04-03T06:59:21.042Z,13.12
2019-04-03T07:00:24.580Z,13.11
2019-04-03T07:01:28.117Z,13.17
2019-04-03T07:02:32.408Z,13.20
2019-04-03T07:03:35.891Z,13.25
2019-04-03T07:04:39.327Z,13.29
2019-04-03T07:05:42.955Z,13.31
2019-04-03T07:06:46.545Z,13.33
2019-04-03T07:07:49.982Z,13.35
2019-04-03T07:08:53.516Z,13.34
2019-04-03T07:09:57.310Z,13.37
2019-04-03T07:11:00.773Z,13.36
2019-04-03T07:12:04.300Z,13.35
2019-04-03T07:13:07.794Z,13.39
2019-04-03T07:14:11.233Z,13.40
2019-04-03T07:15:14.828Z,13.42
2019-04-03T07:16:18.267Z,13.46
2019-04-03T07:17:21.804Z,13.44
2019-04-03T07:18:25.231Z,13.47
2019-04-03T07:19:28.883Z,13.50
2019-04-03T07:20:32.364Z,13.52
2019-04-03T07:21:35.873Z,13.54
2019-04-03T07:22:39.302Z,13.54
2019-04-03T07:23:42.883Z,13.49
2019-04-03T07:24:46.406Z,13.41
2019-04-03T07:25:49.954Z,13.42
2019-04-03T07:26:53.352Z,13.40
2019-04-03T07:27:56.849Z,13.41
2019-04-03T07:29:00.307Z,13.47
2019-04-03T07:30:05.214Z,13.47
2019-04-03T07:31:08.669Z,13.48
2019-04-03T07:32:12.511Z,13.51
2019-04-03T07:33:16.026Z,13.56
2019-04-03T07:34:19.548Z,13.60
2019-04-03T07:35:23.131Z,13.61
2019-04-03T07:36:26.571Z,13.62
2019-04-03T07:37:29.998Z,13.66
2019-04-03T07:38:33.434Z,13.64
2019-04-03T07:39:36.867Z,13.65
2019-04-03T07:40:40.318Z,13.63
2019-04-03T07:41:43.819Z,13.60
2019-04-03T07:42:47.329Z,13.55
2019-04-03T07:43:50.760Z,13.58
2019-04-03T07:44:54.206Z,13.63
2019-04-03T07:45:57.653Z,13.60
2019-04-03T07:47:03.262Z,13.61
2019-04-03T07:48:07.066Z,13.64
2019-04-03T07:49:10.561Z,13.71
2019-04-03T07:50:14.551Z,13.75
2019-04-03T07:51:18.302Z,13.81
2019-04-03T07:52:21.709Z,13.85
2019-04-03T07:53:25.227Z,13.86
2019-04-03T07:54:29.014Z,13.83
2019-04-03T07:55:32.465Z,13.88
2019-04-03T07:56:35.897Z,13.84
2019-04-03T07:57:41.361Z,13.81
2019-04-03T07:58:44.515Z,13.82
2019-04-03T07:59:47.995Z,13.83
2019-04-03T08:00:51.525Z,13.80
2019-04-03T08:01:55.190Z,13.80
2019-04-03T08:02:58.587Z,13.86
2019-04-03T08:04:02.097Z,13.88
2019-04-03T08:05:07.347Z,13.95
2019-04-03T08:06:11.127Z,13.95
2019-04-03T08:07:14.580Z,13.98
2019-04-03T08:08:18.086Z,13.99
2019-04-03T08:09:21.551Z,14.05
2019-04-03T08:10:25.295Z,14.11
2019-04-03T08:11:28.746Z,14.11
2019-04-03T08:12:34.553Z,14.08
2019-04-03T08:13:38.423Z,14.05
2019-04-03T08:14:42.069Z,14.11
2019-04-03T08:15:45.690Z,14.06
2019-04-03T08:16:49.136Z,14.03
2019-04-03T08:17:52.587Z,14.06
2019-04-03T08:18:56.017Z,14.03
2019-04-03T08:19:59.458Z,14.07
2019-04-03T08:21:02.909Z,14.11
2019-04-03T08:22:06.409Z,14.13
2019-04-03T08:23:09.897Z,14.13
2019-04-03T08:24:13.322Z,14.18
2019-04-03T08:25:16.758Z,14.17
2019-04-03T08:26:20.393Z,14.16
2019-04-03T08:27:24.430Z,14.15
2019-04-03T08:28:30.140Z,14.16
2019-04-03T08:29:37.190Z,14.20
2019-04-03T08:30:39.658Z,14.22
2019-04-03T08:31:47.825Z,14.24
2019-04-03T08:32:49.614Z,14.15
2019-04-03T08:33:53.032Z,14.16
2019-04-03T08:34:56.690Z,14.23
2019-04-03T08:36:00.098Z,14.28
2019-04-03T08:37:04.107Z,14.30
2019-04-03T08:38:07.548Z,14.31
2019-04-03T08:39:11.054Z,14.36
2019-04-03T08:40:14.733Z,14.42
2019-04-03T08:41:18.181Z,14.46
2019-04-03T08:42:21.617Z,14.48
2019-04-03T08:43:25.069Z,14.53
2019-04-03T08:44:28.579Z,14.57
2019-04-03T08:45:32.014Z,14.53
2019-04-03T08:46:35.464Z,14.53
2019-04-03T08:47:39.303Z,14.58
2019-04-03T08:48:43.001Z,14.60
2019-04-03T08:49:46.485Z,14.63
2019-04-03T08:50:49.888Z,14.64
2019-04-03T08:51:53.515Z,14.68
2019-04-03T08:52:56.927Z,14.71
2019-04-03T08:54:00.368Z,14.77
2019-04-03T08:55:04.919Z,14.78
2019-04-03T08:56:08.370Z,14.86
2019-04-03T08:57:11.891Z,14.90
2019-04-03T08:58:15.407Z,14.95
2019-04-03T08:59:18.892Z,15.01
2019-04-03T09:00:22.546Z,15.08
2019-04-03T09:01:26.043Z,15.16
2019-04-03T09:02:29.625Z,15.21
2019-04-03T09:03:33.052Z,15.25
2019-04-03T09:04:36.523Z,15.26
2019-04-03T09:05:39.995Z,15.27
2019-04-03T09:06:43.484Z,15.27
2019-04-03T09:07:46.939Z,15.32
2019-04-03T09:08:50.381Z,15.38
2019-04-03T09:09:53.814Z,15.38
2019-04-03T09:10:57.274Z,15.41
2019-04-03T09:12:00.786Z,15.45
2019-04-03T09:13:16.276Z,15.49
2019-04-03T09:14:09.513Z,15.47
2019-04-03T09:15:13.508Z,15.40
2019-04-03T09:16:16.920Z,15.37
2019-04-03T09:17:20.431Z,15.38
2019-04-03T09:18:23.976Z,15.38
2019-04-03T09:19:27.469Z,15.38
2019-04-03T09:20:31.044Z,15.41
2019-04-03T09:21:34.477Z,15.42
2019-04-03T09:22:37.994Z,15.45
2019-04-03T09:23:41.540Z,15.45
2019-04-03T09:24:45.053Z,15.32
2019-04-03T09:25:48.545Z,15.29
2019-04-03T09:26:52.007Z,15.33
2019-04-03T09:27:55.449Z,15.35
2019-04-03T09:28:58.926Z,15.35
2019-04-03T09:30:02.542Z,15.36
2019-04-03T09:31:06.182Z,15.38
2019-04-03T09:32:09.678Z,15.39
2019-04-03T09:33:13.436Z,15.26
2019-04-03T09:34:16.884Z,15.24
2019-04-03T09:35:20.393Z,15.29
2019-04-03T09:36:23.915Z,15.32
2019-04-03T09:37:27.347Z,15.40
2019-04-03T09:38:30.952Z,15.50
2019-04-03T09:39:34.437Z,15.58
2019-04-03T09:40:38.303Z,15.61
2019-04-03T09:41:41.756Z,15.61
2019-04-03T09:42:45.187Z,15.60
2019-04-03T09:43:48.981Z,15.67
2019-04-03T09:44:53.672Z,15.73
2019-04-03T09:46:00.288Z,15.77
2019-04-03T09:47:03.787Z,15.81
2019-04-03T09:48:07.713Z,15.87
2019-04-03T09:49:11.260Z,15.90
2019-04-03T09:50:17.207Z,15.92
2019-04-03T09:51:22.810Z,15.96
2019-04-03T09:52:38.273Z,15.99
2019-04-03T09:53:31.020Z,16.02
2019-04-03T09:54:34.481Z,16.09
2019-04-03T09:55:38.289Z,16.18
2019-04-03T09:56:57.191Z,16.23
2019-04-03T09:57:46.958Z,16.21
2019-04-03T09:58:50.397Z,16.12
2019-04-03T09:59:53.855Z,16.07
2019-04-03T10:00:57.422Z,16.10
2019-04-03T10:02:01.887Z,16.13
2019-04-03T10:03:06.039Z,16.15
2019-04-03T10:04:09.534Z,16.22
2019-04-03T10:05:14.576Z,16.29
2019-04-03T10:06:18.021Z,16.35
2019-04-03T10:07:21.820Z,16.34
2019-04-03T10:08:25.302Z,16.39
2019-04-03T10:09:28.750Z,16.39
2019-04-03T10:10:32.539Z,16.43
2019-04-03T10:11:38.423Z,16.46
2019-04-03T10:12:43.024Z,16.47
2019-04-03T10:13:46.931Z,16.49
2019-04-03T10:14:50.482Z,16.56
2019-04-03T10:15:53.912Z,16.54
2019-04-03T10:16:57.691Z,16.63
2019-04-03T10:18:01.197Z,16.67
2019-04-03T10:19:04.882Z,16.63
2019-04-03T10:20:09.453Z,16.59
2019-04-03T10:21:12.892Z,16.64
2019-04-03T10:22:16.320Z,16.69
2019-04-03T10:23:20.069Z,16.71
2019-04-03T10:24:23.462Z,16.76
2019-04-03T10:25:26.916Z,16.82
2019-04-03T10:26:31.345Z,16.81
2019-04-03T10:27:35.714Z,16.86
2019-04-03T10:28:42.022Z,16.92
2019-04-03T10:29:44.309Z,17.02
2019-04-03T10:30:47.801Z,17.05
2019-04-03T10:31:51.225Z,17.03
2019-04-03T10:32:54.779Z,17.14
2019-04-03T10:33:58.171Z,17.18
2019-04-03T10:35:01.614Z,17.20
2019-04-03T10:36:05.290Z,17.21
2019-04-03T10:37:08.786Z,17.19
2019-04-03T10:38:12.288Z,17.19
2019-04-03T10:39:16.290Z,17.30
2019-04-03T10:40:20.103Z,17.45
2019-04-03T10:41:24.023Z,17.54
2019-04-03T10:42:27.405Z,17.58
2019-04-03T10:43:32.436Z,17.67
2019-04-03T10:44:35.865Z,17.76
2019-04-03T10:45:39.347Z,17.80
2019-04-03T10:46:42.848Z,17.88
2019-04-03T10:47:46.284Z,17.94
2019-04-03T10:48:49.783Z,17.77
2019-04-03T10:49:53.263Z,17.82
2019-04-03T10:50:56.700Z,17.87
2019-04-03T10:52:00.198Z,18.00
2019-04-03T10:53:03.639Z,18.12
2019-04-03T10:54:07.134Z,18.09
2019-04-03T10:55:11.237Z,18.10
2019-04-03T10:56:14.644Z,18.12
2019-04-03T10:57:18.086Z,18.17
2019-04-03T10:58:21.638Z,18.21
2019-04-03T10:59:25.145Z,18.16
2019-04-03T11:00:29.423Z,18.24
2019-04-03T11:01:33.436Z,18.29
2019-04-03T11:02:36.967Z,18.32
2019-04-03T11:03:40.663Z,18.41
2019-04-03T11:04:44.161Z,18.46
2019-04-03T11:05:47.903Z,18.64
2019-04-03T11:06:51.331Z,18.76
2019-04-03T11:07:54.823Z,18.67
2019-04-03T11:08:58.319Z,18.76
2019-04-03T11:10:01.774Z,18.90
2019-04-03T11:11:05.257Z,18.93
2019-04-03T11:12:10.189Z,18.98
2019-04-03T11:13:14.386Z,19.13
2019-04-03T11:14:17.927Z,19.28
2019-04-03T11:15:21.437Z,19.30
2019-04-03T11:16:25.297Z,19.41
2019-04-03T11:17:28.777Z,19.42
2019-04-03T11:18:32.478Z,19.37
2019-04-03T11:19:37.421Z,19.39
2019-04-03T11:20:41.510Z,19.40
2019-04-03T11:21:45.524Z,19.36
2019-04-03T11:22:49.076Z,19.36
2019-04-03T11:23:52.639Z,19.39
2019-04-03T11:24:56.306Z,19.47
2019-04-03T11:25:59.878Z,19.52
2019-04-03T11:27:03.713Z,19.59
2019-04-03T11:28:07.279Z,19.61
2019-04-03T11:29:10.976Z,19.78
2019-04-03T11:30:19.928Z,20.04
2019-04-03T11:31:27.431Z,20.16
2019-04-03T11:32:27.272Z,20.23
2019-04-03T11:33:30.815Z,20.31
2019-04-03T11:34:34.187Z,20.31
2019-04-03T11:35:37.731Z,20.34
2019-04-03T11:36:41.724Z,20.41
2019-04-03T11:37:45.143Z,20.44
2019-04-03T11:38:48.885Z,20.50
2019-04-03T11:40:02.352Z,20.59
2019-04-03T11:40:57.531Z,20.72
2019-04-03T11:42:00.999Z,20.57
2019-04-03T11:43:04.570Z,20.59
2019-04-03T11:44:08.313Z,20.66
2019-04-03T11:45:12.663Z,20.76
2019-04-03T11:46:16.080Z,20.84
2019-04-03T11:47:19.584Z,20.90
2019-04-03T11:48:24.405Z,21.09
2019-04-03T11:49:28.453Z,21.21
2019-04-03T11:50:32.089Z,21.31
2019-04-03T11:51:36.180Z,21.37
2019-04-03T11:52:39.986Z,21.45
2019-04-03T11:53:45.486Z,21.51
2019-04-03T11:54:48.605Z,21.55
2019-04-03T11:55:52.196Z,21.57
2019-04-03T11:56:56.624Z,21.57
2019-04-03T11:58:00.699Z,21.60
2019-04-03T11:59:04.198Z,21.72
2019-04-03T12:00:11.779Z,21.74
2019-04-03T12:01:16.816Z,21.74
2019-04-03T12:02:21.134Z,21.89
2019-04-03T12:03:24.580Z,21.99
2019-04-03T12:04:28.116Z,22.02
2019-04-03T12:05:31.661Z,22.15
2019-04-03T12:06:35.339Z,22.30
2019-04-03T12:07:38.781Z,22.33
2019-04-03T12:08:44.575Z,22.45
2019-04-03T12:09:47.441Z,22.39
2019-04-03T12:10:51.155Z,22.45
2019-04-03T12:11:55.512Z,22.49
2019-04-03T12:12:59.275Z,22.53
2019-04-03T12:14:02.814Z,22.68
2019-04-03T12:15:09.711Z,22.47
2019-04-03T12:16:13.170Z,22.59
2019-04-03T12:17:16.901Z,22.73
2019-04-03T12:18:20.706Z,22.75
2019-04-03T12:19:24.331Z,22.89
2019-04-03T12:20:27.823Z,23.18
2019-04-03T12:21:31.341Z,23.48
2019-04-03T12:22:35.159Z,23.69
2019-04-03T12:23:39.428Z,23.85
2019-04-03T12:24:43.229Z,23.91
2019-04-03T12:25:46.925Z,23.86
2019-04-03T12:26:51.502Z,23.84
2019-04-03T12:27:55.713Z,24.03
2019-04-03T12:28:59.407Z,24.00
2019-04-03T12:30:03.191Z,23.66
2019-04-03T12:31:06.636Z,23.53
2019-04-03T12:32:10.441Z,23.48
2019-04-03T12:33:13.954Z,23.69
2019-04-03T12:34:17.381Z,24.13
2019-04-03T12:35:20.822Z,24.45
2019-04-03T12:36:26.884Z,24.42
2019-04-03T12:37:29.441Z,23.75
2019-04-03T12:38:33.047Z,23.33
2019-04-03T12:39:36.629Z,22.92
2019-04-03T12:40:40.098Z,22.60
2019-04-03T12:41:44.122Z,22.65
2019-04-03T12:42:47.885Z,22.64
2019-04-03T12:43:51.350Z,23.11
2019-04-03T12:44:55.346Z,23.46
2019-04-03T12:46:02.377Z,23.42
2019-04-03T12:47:05.635Z,23.64
2019-04-03T12:48:10.093Z,23.80
2019-04-03T12:49:13.840Z,24.08
2019-04-03T12:50:17.469Z,23.83
2019-04-03T12:51:20.984Z,23.43
2019-04-03T12:52:24.436Z,23.08
2019-04-03T12:53:27.866Z,22.84
2019-04-03T12:54:31.314Z,22.59
2019-04-03T12:55:34.952Z,22.53
2019-04-03T12:56:38.376Z,22.52
2019-04-03T12:57:41.819Z,22.54
2019-04-03T12:58:45.267Z,23.46
2019-04-03T12:59:48.677Z,24.50
2019-04-03T13:00:52.239Z,24.87
2019-04-03T13:01:55.624Z,25.33
2019-04-03T13:02:59.210Z,25.85
2019-04-03T13:04:02.705Z,26.46
2019-04-03T13:05:07.893Z,26.48
2019-04-03T13:06:11.279Z,26.10
2019-04-03T13:07:15.150Z,25.52
2019-04-03T13:08:20.996Z,25.18
2019-04-03T13:09:23.785Z,25.42
2019-04-03T13:10:39.211Z,25.33
2019-04-03T13:11:33.552Z,25.18
2019-04-03T13:12:37.499Z,24.87
2019-04-03T13:13:41.288Z,24.46
2019-04-03T13:14:45.138Z,24.12
2019-04-03T13:15:48.585Z,23.97
2019-04-03T13:16:52.010Z,23.88
2019-04-03T13:17:55.465Z,24.03
2019-04-03T13:18:58.972Z,24.04
2019-04-03T13:20:05.598Z,23.83
2019-04-03T13:21:08.723Z,23.64
2019-04-03T13:22:12.750Z,23.39
2019-04-03T13:23:16.205Z,23.38
2019-04-03T13:24:19.637Z,23.60
2019-04-03T13:25:23.065Z,23.63
2019-04-03T13:26:26.496Z,23.60
2019-04-03T13:27:31.779Z,23.78
2019-04-03T13:28:36.758Z,23.78
2019-04-03T13:29:40.856Z,23.71
2019-04-03T13:30:44.853Z,23.73
2019-04-03T13:31:48.571Z,23.75
2019-04-03T13:32:59.843Z,23.55
2019-04-03T13:34:00.164Z,23.19
2019-04-03T13:35:05.892Z,23.03
2019-04-03T13:36:09.687Z,23.01
2019-04-03T13:37:13.212Z,22.99
2019-04-03T13:38:16.641Z,22.97
2019-04-03T13:39:20.096Z,22.97
2019-04-03T13:40:23.574Z,22.78
2019-04-03T13:41:26.999Z,22.61
2019-04-03T13:42:31.644Z,22.65
2019-04-03T13:43:35.750Z,22.78